PL-0085 weather

Stara Wieś Field
Subcarpathia, Poland

Public forecast

Using degrees Celsius for public forecast. Weather courtesy of forecast.io.

METAR (pilot weather report)

Closest report is Rzeszów-Jasionka Airport, 23.2 nm (43.0 km) N. Retrieved 2019/03/26 17:30 UTC (26 minutes ago):

EPRZ 261730Z 28016G26KT CAVOK 04/M01 Q1016

TAF (pilot weather forecast)

Closest forecast is Rzeszów-Jasionka Airport, 23.2 nm (43.0 km) N. Retrieved 2019/03/26 12:33 UTC (5 hours ago):

TAF EPRZ 261130Z 2612/2712 27015G25KT 9999 BKN033 TEMPO 2612/2619 29020G35KT 4000 SHRA BKN016CB TEMPO 2619/2624 2000 SHRA SHSNRA BKN008 BKN016CB BECMG 2623/2702 30007KT